createdAt,value
2022-11-17T00:00:22.057Z,84.09
2022-11-17T00:05:33.887Z,84.03
2022-11-17T00:10:33.133Z,83.99
2022-11-17T00:15:32.905Z,83.91
2022-11-17T00:20:49.201Z,83.72
2022-11-17T00:25:48.323Z,83.78
2022-11-17T00:31:04.703Z,83.56
2022-11-17T00:36:03.723Z,83.91
2022-11-17T00:41:03.062Z,83.53
2022-11-17T00:46:02.546Z,83.42
2022-11-17T00:51:04.287Z,83.34
2022-11-17T00:56:03.476Z,83.25
2022-11-17T01:01:02.394Z,83.12
2022-11-17T01:06:09.542Z,83.15
2022-11-17T01:11:17.271Z,83.11
2022-11-17T01:16:19.501Z,82.92
2022-11-17T01:21:22.703Z,82.88
2022-11-17T01:26:25.204Z,82.92
2022-11-17T01:31:26.666Z,82.88
2022-11-17T01:36:29.362Z,82.94
2022-11-17T01:41:30.837Z,82.83
2022-11-17T01:46:37.725Z,82.89
2022-11-17T01:51:40.116Z,82.76
2022-11-17T01:56:45.784Z,82.51
2022-11-17T02:01:56.786Z,82.22
2022-11-17T02:07:03.382Z,81.78
2022-11-17T02:12:03.892Z,81.97
2022-11-17T02:17:11.494Z,82.23
2022-11-17T02:22:54.417Z,81.60
2022-11-17T02:28:17.283Z,81.53
2022-11-17T02:33:27.532Z,81.44
2022-11-17T02:38:40.691Z,81.22
2022-11-17T02:44:07.013Z,81.22
2022-11-17T02:49:14.797Z,81.06
2022-11-17T02:54:15.879Z,80.57
2022-11-17T02:59:19.066Z,80.27
2022-11-17T03:04:37.014Z,80.30
2022-11-17T03:09:49.807Z,80.64
2022-11-17T03:15:04.900Z,80.56
2022-11-17T03:20:15.644Z,80.58
2022-11-17T03:25:21.451Z,80.55
2022-11-17T03:30:25.718Z,80.65
2022-11-17T03:35:33.715Z,80.88
2022-11-17T03:40:36.267Z,80.88
2022-11-17T03:45:39.218Z,80.97
2022-11-17T03:50:42.561Z,81.08
2022-11-17T03:55:53.058Z,81.15
2022-11-17T04:00:55.845Z,81.19
2022-11-17T04:05:54.972Z,81.18
2022-11-17T04:11:11.321Z,81.14
2022-11-17T04:16:11.271Z,81.18
2022-11-17T04:21:10.488Z,81.16
2022-11-17T04:26:27.886Z,81.03
2022-11-17T04:31:29.313Z,81.08
2022-11-17T04:36:31.513Z,81.07
2022-11-17T04:41:49.605Z,81.23
2022-11-17T04:46:49.430Z,81.15
2022-11-17T04:51:49.091Z,81.04
2022-11-17T04:56:49.497Z,80.94
2022-11-17T05:01:49.306Z,81.04
2022-11-17T05:06:49.045Z,80.81
2022-11-17T05:12:05.790Z,80.85
2022-11-17T05:17:10.864Z,80.79
2022-11-17T05:22:30.041Z,80.87
2022-11-17T05:27:30.089Z,80.82
2022-11-17T05:32:29.031Z,80.66
2022-11-17T05:37:28.268Z,80.78
2022-11-17T05:42:27.239Z,80.69
2022-11-17T05:47:26.290Z,80.64
2022-11-17T05:52:25.288Z,80.48
2022-11-17T05:57:33.070Z,80.54
2022-11-17T06:02:36.912Z,80.38
2022-11-17T06:07:37.663Z,80.41
2022-11-17T06:12:36.740Z,80.51
2022-11-17T06:17:42.631Z,80.57
2022-11-17T06:22:47.029Z,80.42
2022-11-17T06:27:50.251Z,80.39
2022-11-17T06:32:51.611Z,79.96
2022-11-17T06:37:50.546Z,79.85
2022-11-17T06:43:06.552Z,79.57
2022-11-17T06:48:06.761Z,79.16
2022-11-17T06:53:13.175Z,78.50
2022-11-17T06:58:14.166Z,78.91
2022-11-17T07:03:14.807Z,79.13
2022-11-17T07:08:14.649Z,78.27
2022-11-17T07:13:13.545Z,77.83
2022-11-17T07:18:12.864Z,77.18
2022-11-17T07:23:11.951Z,77.29
2022-11-17T07:28:11.318Z,77.09
2022-11-17T07:33:10.264Z,77.49
2022-11-17T07:38:08.626Z,77.66
2022-11-17T07:43:08.307Z,77.84
2022-11-17T07:48:09.827Z,78.16
2022-11-17T07:53:09.074Z,78.25
2022-11-17T07:58:08.060Z,78.36
2022-11-17T08:03:08.129Z,78.22
2022-11-17T08:08:09.453Z,77.76
2022-11-17T08:13:08.928Z,78.12
2022-11-17T08:18:08.563Z,78.31
2022-11-17T08:23:06.891Z,78.37
2022-11-17T08:28:07.847Z,78.16
2022-11-17T08:33:06.901Z,77.74
2022-11-17T08:38:05.539Z,77.87
2022-11-17T08:43:05.308Z,77.35
2022-11-17T08:48:04.361Z,76.64
2022-11-17T08:53:05.933Z,75.10
2022-11-17T08:58:06.883Z,74.60
2022-11-17T09:03:08.870Z,75.19
2022-11-17T09:08:37.980Z,75.23
2022-11-17T09:13:26.859Z,75.47
2022-11-17T09:18:25.417Z,75.72
2022-11-17T09:23:24.680Z,76.23
2022-11-17T09:28:25.235Z,76.57
2022-11-17T09:33:24.228Z,76.28
2022-11-17T09:38:22.989Z,75.77
2022-11-17T09:43:31.201Z,74.89
2022-11-17T09:48:51.202Z,75.09
2022-11-17T09:53:59.244Z,75.03
2022-11-17T09:59:04.374Z,75.43
2022-11-17T10:04:04.359Z,75.46
2022-11-17T10:09:20.988Z,76.12
2022-11-17T10:14:29.487Z,75.95
2022-11-17T10:19:31.414Z,75.73
2022-11-17T10:24:42.784Z,75.13
2022-11-17T10:29:41.604Z,74.04
2022-11-17T10:34:41.935Z,73.66
2022-11-17T10:39:44.173Z,73.88
2022-11-17T10:44:51.427Z,74.36
2022-11-17T10:50:05.924Z,75.18
2022-11-17T10:55:24.443Z,74.86
2022-11-17T11:00:35.169Z,75.22
2022-11-17T11:05:33.655Z,73.88
2022-11-17T11:10:56.870Z,73.43
2022-11-17T11:16:16.350Z,74.21
2022-11-17T11:21:26.104Z,74.07
2022-11-17T11:26:50.004Z,72.61
2022-11-17T11:32:07.937Z,71.73
2022-11-17T11:37:12.800Z,72.26
2022-11-17T11:42:40.731Z,71.13
2022-11-17T11:47:59.014Z,71.88
2022-11-17T11:53:06.071Z,72.41
2022-11-17T11:58:13.605Z,71.55
2022-11-17T12:03:26.371Z,70.84
2022-11-17T12:08:38.064Z,71.35
2022-11-17T12:13:43.813Z,70.94
2022-11-17T12:18:46.651Z,70.30
2022-11-17T12:24:26.671Z,69.48
2022-11-17T12:29:50.219Z,68.83
2022-11-17T12:35:26.906Z,70.51
2022-11-17T12:40:49.479Z,70.82
2022-11-17T12:46:12.382Z,69.27
2022-11-17T12:51:24.987Z,66.38
2022-11-17T12:56:54.295Z,65.62
2022-11-17T13:02:06.829Z,66.10
2022-11-17T13:07:08.832Z,63.13
2022-11-17T13:12:11.906Z,63.99
2022-11-17T13:17:17.043Z,64.45
2022-11-17T13:22:21.562Z,64.34
2022-11-17T13:27:28.714Z,64.01
2022-11-17T13:32:31.691Z,63.00
2022-11-17T13:37:33.171Z,61.00
2022-11-17T13:42:36.832Z,58.11
2022-11-17T13:47:50.637Z,49.36
2022-11-17T13:52:53.217Z,51.99
2022-11-17T13:58:02.112Z,51.54
2022-11-17T14:03:04.058Z,53.71
2022-11-17T14:08:25.922Z,53.98
2022-11-17T14:13:33.696Z,54.10
2022-11-17T14:18:37.823Z,55.41
2022-11-17T14:23:37.259Z,55.42
2022-11-17T14:28:35.933Z,56.16
2022-11-17T14:33:34.735Z,57.14
2022-11-17T14:38:34.043Z,57.30
2022-11-17T14:43:32.668Z,58.10
2022-11-17T14:48:31.520Z,58.17
2022-11-17T14:53:30.823Z,58.81
2022-11-17T14:58:29.752Z,59.16
2022-11-17T15:03:28.853Z,59.57
2022-11-17T15:08:27.642Z,60.12
2022-11-17T15:13:28.032Z,60.52
2022-11-17T15:18:26.910Z,61.00
2022-11-17T15:23:25.632Z,61.38
2022-11-17T15:28:24.119Z,61.74
2022-11-17T15:33:23.125Z,62.13
2022-11-17T15:38:21.382Z,62.63
2022-11-17T15:43:20.723Z,63.18
2022-11-17T15:48:19.510Z,63.69
2022-11-17T15:53:18.859Z,64.36
2022-11-17T15:58:18.512Z,65.24
2022-11-17T16:03:17.625Z,65.91
2022-11-17T16:08:16.978Z,66.36
2022-11-17T16:13:15.930Z,66.78
2022-11-17T16:18:14.504Z,66.96
2022-11-17T16:23:13.760Z,67.07
2022-11-17T16:28:14.225Z,67.27
2022-11-17T16:33:17.605Z,67.51
2022-11-17T16:38:19.434Z,67.79
2022-11-17T16:43:18.590Z,68.02
2022-11-17T16:48:18.586Z,68.36
2022-11-17T16:53:17.896Z,68.77
2022-11-17T16:58:16.517Z,69.11
2022-11-17T17:03:17.747Z,69.46
2022-11-17T17:08:17.492Z,69.82
2022-11-17T17:13:16.614Z,70.13
2022-11-17T17:18:15.765Z,70.40
2022-11-17T17:23:14.996Z,70.65
2022-11-17T17:28:14.441Z,70.91
2022-11-17T17:33:13.746Z,71.14
2022-11-17T17:38:13.056Z,71.32
2022-11-17T17:43:12.235Z,71.43
2022-11-17T17:48:11.322Z,71.55
2022-11-17T17:53:10.237Z,71.60
2022-11-17T17:58:09.401Z,71.65
2022-11-17T18:03:08.930Z,71.75
2022-11-17T18:08:08.623Z,71.85
2022-11-17T18:13:10.847Z,71.89
2022-11-17T18:18:10.467Z,72.03
2022-11-17T18:23:10.201Z,72.04
2022-11-17T18:28:09.367Z,72.11
2022-11-17T18:33:08.700Z,72.20
2022-11-17T18:38:09.229Z,72.27
2022-11-17T18:43:07.790Z,72.37
2022-11-17T18:48:07.167Z,72.42
2022-11-17T18:53:09.170Z,72.56
2022-11-17T18:58:22.539Z,72.70
2022-11-17T19:03:28.763Z,72.84
2022-11-17T19:08:29.067Z,72.96
2022-11-17T19:13:30.053Z,73.07
2022-11-17T19:18:28.936Z,73.22
2022-11-17T19:23:28.803Z,73.30
2022-11-17T19:28:27.966Z,73.29
2022-11-17T19:33:29.483Z,73.41
2022-11-17T19:38:28.312Z,73.49
2022-11-17T19:43:30.085Z,73.55
2022-11-17T19:48:32.716Z,73.65
2022-11-17T19:53:31.236Z,73.72
2022-11-17T19:58:31.117Z,73.78
2022-11-17T20:03:30.253Z,73.86
2022-11-17T20:08:30.081Z,73.87
2022-11-17T20:13:30.943Z,73.88
2022-11-17T20:18:30.910Z,73.88
2022-11-17T20:23:30.261Z,73.87
2022-11-17T20:28:32.283Z,73.85
2022-11-17T20:33:32.613Z,73.87
2022-11-17T20:38:31.816Z,73.83
2022-11-17T20:43:31.603Z,73.80
2022-11-17T20:48:32.634Z,73.62
2022-11-17T20:53:32.855Z,73.59
2022-11-17T20:58:33.014Z,73.62
2022-11-17T21:03:32.251Z,73.59
2022-11-17T21:08:33.466Z,73.28
2022-11-17T21:13:35.625Z,73.38
2022-11-17T21:18:36.970Z,73.39
2022-11-17T21:23:36.113Z,73.42
2022-11-17T21:28:34.613Z,73.46
2022-11-17T21:33:33.734Z,73.34
2022-11-17T21:38:33.518Z,73.30
2022-11-17T21:43:39.289Z,73.30
2022-11-17T21:48:40.414Z,73.30
2022-11-17T21:53:39.233Z,73.23
2022-11-17T21:58:38.568Z,73.31
2022-11-17T22:03:37.923Z,73.41
2022-11-17T22:08:41.006Z,73.56
2022-11-17T22:13:41.107Z,73.75
2022-11-17T22:18:41.093Z,73.91
2022-11-17T22:23:40.413Z,73.99
2022-11-17T22:28:39.563Z,74.01
2022-11-17T22:33:40.119Z,74.09
2022-11-17T22:38:39.617Z,74.13
2022-11-17T22:43:38.894Z,74.23
2022-11-17T22:48:41.208Z,74.39
2022-11-17T22:53:40.435Z,74.46
2022-11-17T22:58:39.584Z,74.51
2022-11-17T23:03:38.983Z,74.54
2022-11-17T23:08:37.925Z,74.61
2022-11-17T23:13:37.955Z,74.67
2022-11-17T23:18:38.335Z,74.67
2022-11-17T23:23:40.014Z,74.70
2022-11-17T23:28:39.402Z,74.74
2022-11-17T23:33:40.377Z,74.80
2022-11-17T23:38:39.568Z,74.86
2022-11-17T23:43:38.798Z,74.86
2022-11-17T23:48:38.523Z,74.83
2022-11-17T23:53:38.092Z,74.80
2022-11-17T23:58:37.103Z,74.85
